sensor_id;sensor_type;location;lat;lon;timestamp;temperature;humidity
3921;DHT22;1975;49.356;6.816;2023-03-20T00:00:52;10.40;99.90
3921;DHT22;1975;49.356;6.816;2023-03-20T00:03:18;10.40;99.90
3921;DHT22;1975;49.356;6.816;2023-03-20T00:05:43;10.40;99.90
3921;DHT22;1975;49.356;6.816;2023-03-20T00:08:09;10.40;99.90
3921;DHT22;1975;49.356;6.816;2023-03-20T00:10:39;10.40;99.90
3921;DHT22;1975;49.356;6.816;2023-03-20T00:13:05;10.40;99.90
3921;DHT22;1975;49.356;6.816;2023-03-20T00:15:38;10.40;99.90
3921;DHT22;1975;49.356;6.816;2023-03-20T00:18:10;10.40;99.90
3921;DHT22;1975;49.356;6.816;2023-03-20T00:20:37;10.40;99.90
3921;DHT22;1975;49.356;6.816;2023-03-20T00:23:03;10.40;99.90
3921;DHT22;1975;49.356;6.816;2023-03-20T00:25:29;10.40;99.90
3921;DHT22;1975;49.356;6.816;2023-03-20T00:27:54;10.40;99.90
3921;DHT22;1975;49.356;6.816;2023-03-20T00:30:29;10.40;99.90
3921;DHT22;1975;49.356;6.816;2023-03-20T00:32:55;10.40;99.90
3921;DHT22;1975;49.356;6.816;2023-03-20T00:35:26;10.40;99.90
3921;DHT22;1975;49.356;6.816;2023-03-20T00:37:52;10.40;99.90
3921;DHT22;1975;49.356;6.816;2023-03-20T00:40:18;10.40;99.90
3921;DHT22;1975;49.356;6.816;2023-03-20T00:42:44;10.40;99.90
3921;DHT22;1975;49.356;6.816;2023-03-20T00:45:12;10.30;99.90
3921;DHT22;1975;49.356;6.816;2023-03-20T00:47:38;10.40;99.90
3921;DHT22;1975;49.356;6.816;2023-03-20T00:50:09;10.30;99.90
3921;DHT22;1975;49.356;6.816;2023-03-20T00:52:39;10.30;99.90
3921;DHT22;1975;49.356;6.816;2023-03-20T00:55:04;10.30;99.90
3921;DHT22;1975;49.356;6.816;2023-03-20T00:57:33;10.30;99.90
3921;DHT22;1975;49.356;6.816;2023-03-20T01:00:02;10.30;99.90
3921;DHT22;1975;49.356;6.816;2023-03-20T01:02:29;10.30;99.90
3921;DHT22;1975;49.356;6.816;2023-03-20T01:04:55;10.30;99.90
3921;DHT22;1975;49.356;6.816;2023-03-20T01:07:21;10.30;99.90
3921;DHT22;1975;49.356;6.816;2023-03-20T01:09:47;10.30;99.90
3921;DHT22;1975;49.356;6.816;2023-03-20T01:12:12;10.30;99.90
3921;DHT22;1975;49.356;6.816;2023-03-20T01:14:39;10.30;99.90
3921;DHT22;1975;49.356;6.816;2023-03-20T01:17:08;10.30;99.90
3921;DHT22;1975;49.356;6.816;2023-03-20T01:19:34;10.30;99.90
3921;DHT22;1975;49.356;6.816;2023-03-20T01:22:00;10.30;99.90
3921;DHT22;1975;49.356;6.816;2023-03-20T01:24:27;10.30;99.90
3921;DHT22;1975;49.356;6.816;2023-03-20T01:26:52;10.30;99.90
3921;DHT22;1975;49.356;6.816;2023-03-20T01:29:19;10.30;99.90
3921;DHT22;1975;49.356;6.816;2023-03-20T01:31:45;10.30;99.90
3921;DHT22;1975;49.356;6.816;2023-03-20T01:34:11;10.30;99.90
3921;DHT22;1975;49.356;6.816;2023-03-20T01:36:37;10.30;99.90
3921;DHT22;1975;49.356;6.816;2023-03-20T01:39:03;10.30;99.90
3921;DHT22;1975;49.356;6.816;2023-03-20T01:41:29;10.30;99.90
3921;DHT22;1975;49.356;6.816;2023-03-20T01:43:54;10.30;99.90
3921;DHT22;1975;49.356;6.816;2023-03-20T01:46:27;10.30;99.90
3921;DHT22;1975;49.356;6.816;2023-03-20T01:48:55;10.30;99.90
3921;DHT22;1975;49.356;6.816;2023-03-20T01:51:22;10.30;99.90
3921;DHT22;1975;49.356;6.816;2023-03-20T01:54:08;10.30;99.90
3921;DHT22;1975;49.356;6.816;2023-03-20T01:56:36;10.30;99.90
3921;DHT22;1975;49.356;6.816;2023-03-20T01:59:25;10.30;99.90
3921;DHT22;1975;49.356;6.816;2023-03-20T02:01:49;10.30;99.90
3921;DHT22;1975;49.356;6.816;2023-03-20T02:04:14;10.30;99.90
3921;DHT22;1975;49.356;6.816;2023-03-20T02:06:41;10.30;99.90
3921;DHT22;1975;49.356;6.816;2023-03-20T02:09:09;10.30;99.90
3921;DHT22;1975;49.356;6.816;2023-03-20T02:11:35;10.30;99.90
3921;DHT22;1975;49.356;6.816;2023-03-20T02:14:01;10.30;99.90
3921;DHT22;1975;49.356;6.816;2023-03-20T02:16:27;10.30;99.90
3921;DHT22;1975;49.356;6.816;2023-03-20T02:18:52;10.30;99.90
3921;DHT22;1975;49.356;6.816;2023-03-20T02:26:45;10.30;99.90
3921;DHT22;1975;49.356;6.816;2023-03-20T02:29:20;10.30;99.90
3921;DHT22;1975;49.356;6.816;2023-03-20T02:31:59;10.30;99.90
3921;DHT22;1975;49.356;6.816;2023-03-20T02:44:32;10.20;99.90
3921;DHT22;1975;49.356;6.816;2023-03-20T02:49:34;10.20;99.90
3921;DHT22;1975;49.356;6.816;2023-03-20T02:52:08;10.20;99.90
3921;DHT22;1975;49.356;6.816;2023-03-20T02:57:13;10.20;99.90
3921;DHT22;1975;49.356;6.816;2023-03-20T03:02:16;10.20;99.90
3921;DHT22;1975;49.356;6.816;2023-03-20T03:04:50;10.20;99.90
3921;DHT22;1975;49.356;6.816;2023-03-20T03:07:18;10.20;99.90
3921;DHT22;1975;49.356;6.816;2023-03-20T03:09:48;10.20;99.90
3921;DHT22;1975;49.356;6.816;2023-03-20T03:12:16;10.20;99.90
3921;DHT22;1975;49.356;6.816;2023-03-20T03:14:45;10.20;99.90
3921;DHT22;1975;49.356;6.816;2023-03-20T03:17:11;10.20;99.90
3921;DHT22;1975;49.356;6.816;2023-03-20T03:19:38;10.20;99.90
3921;DHT22;1975;49.356;6.816;2023-03-20T03:22:06;10.20;99.90
3921;DHT22;1975;49.356;6.816;2023-03-20T03:24:32;10.20;99.90
3921;DHT22;1975;49.356;6.816;2023-03-20T03:27:00;10.20;99.90
3921;DHT22;1975;49.356;6.816;2023-03-20T03:29:27;10.20;99.90
3921;DHT22;1975;49.356;6.816;2023-03-20T03:31:54;10.20;99.90
3921;DHT22;1975;49.356;6.816;2023-03-20T03:34:20;10.20;99.90
3921;DHT22;1975;49.356;6.816;2023-03-20T03:37:03;10.20;99.90
3921;DHT22;1975;49.356;6.816;2023-03-20T03:44:36;10.20;99.90
3921;DHT22;1975;49.356;6.816;2023-03-20T03:47:06;10.20;99.90
3921;DHT22;1975;49.356;6.816;2023-03-20T03:49:34;10.20;99.90
3921;DHT22;1975;49.356;6.816;2023-03-20T03:52:02;10.20;99.90
3921;DHT22;1975;49.356;6.816;2023-03-20T03:57:13;10.20;99.90
3921;DHT22;1975;49.356;6.816;2023-03-20T03:59:41;10.20;99.90
3921;DHT22;1975;49.356;6.816;2023-03-20T04:02:08;10.20;99.90
3921;DHT22;1975;49.356;6.816;2023-03-20T04:04:34;10.20;99.90
3921;DHT22;1975;49.356;6.816;2023-03-20T04:07:01;10.20;99.90
3921;DHT22;1975;49.356;6.816;2023-03-20T04:09:26;10.20;99.90
3921;DHT22;1975;49.356;6.816;2023-03-20T04:11:53;10.20;99.90
3921;DHT22;1975;49.356;6.816;2023-03-20T04:14:18;10.20;99.90
3921;DHT22;1975;49.356;6.816;2023-03-20T04:16:44;10.20;99.90
3921;DHT22;1975;49.356;6.816;2023-03-20T04:19:10;10.20;99.90
3921;DHT22;1975;49.356;6.816;2023-03-20T04:21:35;10.20;99.90
3921;DHT22;1975;49.356;6.816;2023-03-20T04:24:01;10.20;99.90
3921;DHT22;1975;49.356;6.816;2023-03-20T04:26:27;10.20;99.90
3921;DHT22;1975;49.356;6.816;2023-03-20T04:28:52;10.20;99.90
3921;DHT22;1975;49.356;6.816;2023-03-20T04:31:18;10.20;99.90
3921;DHT22;1975;49.356;6.816;2023-03-20T04:33:43;10.20;99.90
3921;DHT22;1975;49.356;6.816;2023-03-20T04:36:09;10.20;99.90
3921;DHT22;1975;49.356;6.816;2023-03-20T04:38:35;10.20;99.90
3921;DHT22;1975;49.356;6.816;2023-03-20T04:41:00;10.10;99.90
3921;DHT22;1975;49.356;6.816;2023-03-20T04:43:26;10.20;99.90
3921;DHT22;1975;49.356;6.816;2023-03-20T04:45:51;10.10;99.90
3921;DHT22;1975;49.356;6.816;2023-03-20T04:48:17;10.10;99.90
3921;DHT22;1975;49.356;6.816;2023-03-20T04:50:42;10.10;99.90
3921;DHT22;1975;49.356;6.816;2023-03-20T04:53:13;10.10;99.90
3921;DHT22;1975;49.356;6.816;2023-03-20T04:55:38;10.10;99.90
3921;DHT22;1975;49.356;6.816;2023-03-20T04:58:04;10.10;99.90
3921;DHT22;1975;49.356;6.816;2023-03-20T05:00:30;10.10;99.90
3921;DHT22;1975;49.356;6.816;2023-03-20T05:02:55;10.10;99.90
3921;DHT22;1975;49.356;6.816;2023-03-20T05:05:20;10.10;99.90
3921;DHT22;1975;49.356;6.816;2023-03-20T05:07:47;10.10;99.90
3921;DHT22;1975;49.356;6.816;2023-03-20T05:10:13;10.10;99.90
3921;DHT22;1975;49.356;6.816;2023-03-20T05:12:38;10.10;99.90
3921;DHT22;1975;49.356;6.816;2023-03-20T05:15:04;10.10;99.90
3921;DHT22;1975;49.356;6.816;2023-03-20T05:17:30;10.10;99.90
3921;DHT22;1975;49.356;6.816;2023-03-20T05:19:55;10.10;99.90
3921;DHT22;1975;49.356;6.816;2023-03-20T05:22:21;10.10;99.90
3921;DHT22;1975;49.356;6.816;2023-03-20T05:24:47;10.10;99.90
3921;DHT22;1975;49.356;6.816;2023-03-20T05:27:12;10.10;99.90
3921;DHT22;1975;49.356;6.816;2023-03-20T05:29:38;10.10;99.90
3921;DHT22;1975;49.356;6.816;2023-03-20T05:32:03;10.10;99.90
3921;DHT22;1975;49.356;6.816;2023-03-20T05:34:29;10.10;99.90
3921;DHT22;1975;49.356;6.816;2023-03-20T05:36:54;10.10;99.90
3921;DHT22;1975;49.356;6.816;2023-03-20T05:39:20;10.10;99.90
3921;DHT22;1975;49.356;6.816;2023-03-20T05:41:46;10.10;99.90
3921;DHT22;1975;49.356;6.816;2023-03-20T05:44:12;10.10;99.90
3921;DHT22;1975;49.356;6.816;2023-03-20T05:46:37;10.10;99.90
3921;DHT22;1975;49.356;6.816;2023-03-20T05:49:03;10.10;99.90
3921;DHT22;1975;49.356;6.816;2023-03-20T05:51:28;10.10;99.90
3921;DHT22;1975;49.356;6.816;2023-03-20T05:53:54;10.10;99.90
3921;DHT22;1975;49.356;6.816;2023-03-20T05:56:19;10.10;99.90
3921;DHT22;1975;49.356;6.816;2023-03-20T05:58:45;10.10;99.90
3921;DHT22;1975;49.356;6.816;2023-03-20T06:01:10;10.10;99.90
3921;DHT22;1975;49.356;6.816;2023-03-20T06:03:36;10.10;99.90
3921;DHT22;1975;49.356;6.816;2023-03-20T06:06:02;10.10;99.90
3921;DHT22;1975;49.356;6.816;2023-03-20T06:08:28;10.00;99.90
3921;DHT22;1975;49.356;6.816;2023-03-20T06:10:54;10.00;99.90
3921;DHT22;1975;49.356;6.816;2023-03-20T06:13:20;10.10;99.90
3921;DHT22;1975;49.356;6.816;2023-03-20T06:15:46;10.00;99.90
3921;DHT22;1975;49.356;6.816;2023-03-20T06:18:11;10.10;99.90
3921;DHT22;1975;49.356;6.816;2023-03-20T06:20:36;10.00;99.90
3921;DHT22;1975;49.356;6.816;2023-03-20T06:23:02;10.00;99.90
3921;DHT22;1975;49.356;6.816;2023-03-20T06:25:27;10.00;99.90
3921;DHT22;1975;49.356;6.816;2023-03-20T06:27:53;10.00;99.90
3921;DHT22;1975;49.356;6.816;2023-03-20T06:30:18;10.00;99.90
3921;DHT22;1975;49.356;6.816;2023-03-20T06:32:44;10.00;99.90
3921;DHT22;1975;49.356;6.816;2023-03-20T06:35:10;10.00;99.90
3921;DHT22;1975;49.356;6.816;2023-03-20T06:37:36;10.00;99.90
3921;DHT22;1975;49.356;6.816;2023-03-20T06:40:02;10.00;99.90
3921;DHT22;1975;49.356;6.816;2023-03-20T06:42:28;10.00;99.90
3921;DHT22;1975;49.356;6.816;2023-03-20T06:44:53;10.00;99.90
3921;DHT22;1975;49.356;6.816;2023-03-20T06:47:19;10.00;99.90
3921;DHT22;1975;49.356;6.816;2023-03-20T06:49:44;10.00;99.90
3921;DHT22;1975;49.356;6.816;2023-03-20T06:52:19;10.00;99.90
3921;DHT22;1975;49.356;6.816;2023-03-20T06:54:46;10.00;99.90
3921;DHT22;1975;49.356;6.816;2023-03-20T06:57:12;10.00;99.90
3921;DHT22;1975;49.356;6.816;2023-03-20T06:59:38;10.00;99.90
3921;DHT22;1975;49.356;6.816;2023-03-20T07:02:03;10.00;99.90
3921;DHT22;1975;49.356;6.816;2023-03-20T07:04:30;10.00;99.90
3921;DHT22;1975;49.356;6.816;2023-03-20T07:06:56;10.00;99.90
3921;DHT22;1975;49.356;6.816;2023-03-20T07:09:21;10.00;99.90
3921;DHT22;1975;49.356;6.816;2023-03-20T07:11:47;10.00;99.90
3921;DHT22;1975;49.356;6.816;2023-03-20T07:14:13;10.00;99.90
3921;DHT22;1975;49.356;6.816;2023-03-20T07:16:40;10.00;99.90
3921;DHT22;1975;49.356;6.816;2023-03-20T07:19:05;10.00;99.90
3921;DHT22;1975;49.356;6.816;2023-03-20T07:21:31;10.00;99.90
3921;DHT22;1975;49.356;6.816;2023-03-20T07:23:57;10.00;99.90
3921;DHT22;1975;49.356;6.816;2023-03-20T07:26:22;10.00;99.90
3921;DHT22;1975;49.356;6.816;2023-03-20T07:28:48;10.00;99.90
3921;DHT22;1975;49.356;6.816;2023-03-20T07:31:20;10.00;99.90
3921;DHT22;1975;49.356;6.816;2023-03-20T07:33:46;10.00;99.90
3921;DHT22;1975;49.356;6.816;2023-03-20T07:36:11;10.00;99.90
3921;DHT22;1975;49.356;6.816;2023-03-20T07:38:37;10.00;99.90
3921;DHT22;1975;49.356;6.816;2023-03-20T07:41:02;10.00;99.90
3921;DHT22;1975;49.356;6.816;2023-03-20T07:43:28;10.00;99.90
3921;DHT22;1975;49.356;6.816;2023-03-20T07:45:53;10.00;99.90
3921;DHT22;1975;49.356;6.816;2023-03-20T07:48:19;10.00;99.90
3921;DHT22;1975;49.356;6.816;2023-03-20T07:50:44;10.00;99.90
3921;DHT22;1975;49.356;6.816;2023-03-20T07:53:10;10.00;99.90
3921;DHT22;1975;49.356;6.816;2023-03-20T07:55:35;10.10;99.90
3921;DHT22;1975;49.356;6.816;2023-03-20T07:58:01;10.00;99.90
3921;DHT22;1975;49.356;6.816;2023-03-20T08:00:26;10.10;99.90
3921;DHT22;1975;49.356;6.816;2023-03-20T08:02:52;10.10;99.90
3921;DHT22;1975;49.356;6.816;2023-03-20T08:05:17;10.10;99.90
3921;DHT22;1975;49.356;6.816;2023-03-20T08:07:43;10.10;99.90
3921;DHT22;1975;49.356;6.816;2023-03-20T08:10:10;10.10;99.90
3921;DHT22;1975;49.356;6.816;2023-03-20T08:12:35;10.10;99.90
3921;DHT22;1975;49.356;6.816;2023-03-20T08:15:01;10.10;99.90
3921;DHT22;1975;49.356;6.816;2023-03-20T08:17:26;10.10;99.90
3921;DHT22;1975;49.356;6.816;2023-03-20T08:19:52;10.20;99.90
3921;DHT22;1975;49.356;6.816;2023-03-20T08:22:17;10.20;99.90
3921;DHT22;1975;49.356;6.816;2023-03-20T08:24:42;10.20;99.90
3921;DHT22;1975;49.356;6.816;2023-03-20T08:27:08;10.20;99.90
3921;DHT22;1975;49.356;6.816;2023-03-20T08:29:33;10.20;99.90
3921;DHT22;1975;49.356;6.816;2023-03-20T08:31:59;10.20;99.90
3921;DHT22;1975;49.356;6.816;2023-03-20T08:34:25;10.20;99.90
3921;DHT22;1975;49.356;6.816;2023-03-20T08:36:51;10.20;99.90
3921;DHT22;1975;49.356;6.816;2023-03-20T08:39:17;10.20;99.90
3921;DHT22;1975;49.356;6.816;2023-03-20T08:41:42;10.20;99.90
3921;DHT22;1975;49.356;6.816;2023-03-20T08:44:10;10.20;99.90
3921;DHT22;1975;49.356;6.816;2023-03-20T08:46:36;10.20;99.90
3921;DHT22;1975;49.356;6.816;2023-03-20T08:49:01;10.20;99.90
3921;DHT22;1975;49.356;6.816;2023-03-20T08:51:27;10.20;99.90
3921;DHT22;1975;49.356;6.816;2023-03-20T08:53:52;10.20;99.90
3921;DHT22;1975;49.356;6.816;2023-03-20T08:56:18;10.20;99.90
3921;DHT22;1975;49.356;6.816;2023-03-20T08:58:43;10.20;99.90
3921;DHT22;1975;49.356;6.816;2023-03-20T09:01:09;10.20;99.90
3921;DHT22;1975;49.356;6.816;2023-03-20T09:03:34;10.20;99.90
3921;DHT22;1975;49.356;6.816;2023-03-20T09:06:00;10.20;99.90
3921;DHT22;1975;49.356;6.816;2023-03-20T09:08:28;10.20;99.90
3921;DHT22;1975;49.356;6.816;2023-03-20T09:10:54;10.20;99.90
3921;DHT22;1975;49.356;6.816;2023-03-20T09:13:19;10.20;99.90
3921;DHT22;1975;49.356;6.816;2023-03-20T09:15:46;10.20;99.90
3921;DHT22;1975;49.356;6.816;2023-03-20T09:18:12;10.20;99.90
3921;DHT22;1975;49.356;6.816;2023-03-20T09:20:37;10.20;99.90
3921;DHT22;1975;49.356;6.816;2023-03-20T09:23:03;10.30;99.90
3921;DHT22;1975;49.356;6.816;2023-03-20T09:25:28;10.30;99.90
3921;DHT22;1975;49.356;6.816;2023-03-20T09:27:54;10.30;99.90
3921;DHT22;1975;49.356;6.816;2023-03-20T09:30:21;10.30;99.90
3921;DHT22;1975;49.356;6.816;2023-03-20T09:32:47;10.30;99.90
3921;DHT22;1975;49.356;6.816;2023-03-20T09:35:13;10.30;99.90
3921;DHT22;1975;49.356;6.816;2023-03-20T09:37:38;10.30;99.90
3921;DHT22;1975;49.356;6.816;2023-03-20T09:40:04;10.30;99.90
3921;DHT22;1975;49.356;6.816;2023-03-20T09:42:33;10.30;99.90
3921;DHT22;1975;49.356;6.816;2023-03-20T09:45:06;10.30;99.90
3921;DHT22;1975;49.356;6.816;2023-03-20T09:47:53;10.30;99.90
3921;DHT22;1975;49.356;6.816;2023-03-20T09:50:25;10.40;99.90
3921;DHT22;1975;49.356;6.816;2023-03-20T09:52:59;10.40;99.90
3921;DHT22;1975;49.356;6.816;2023-03-20T09:55:31;10.40;99.90
3921;DHT22;1975;49.356;6.816;2023-03-20T09:58:01;10.40;99.90
3921;DHT22;1975;49.356;6.816;2023-03-20T10:00:28;10.40;99.90
3921;DHT22;1975;49.356;6.816;2023-03-20T10:02:59;10.40;99.90
3921;DHT22;1975;49.356;6.816;2023-03-20T10:05:26;10.40;99.90
3921;DHT22;1975;49.356;6.816;2023-03-20T10:07:56;10.40;99.90
3921;DHT22;1975;49.356;6.816;2023-03-20T10:10:23;10.40;99.90
3921;DHT22;1975;49.356;6.816;2023-03-20T10:18:25;10.40;99.90
3921;DHT22;1975;49.356;6.816;2023-03-20T10:20:53;10.40;99.90
3921;DHT22;1975;49.356;6.816;2023-03-20T10:23:25;10.40;99.90
3921;DHT22;1975;49.356;6.816;2023-03-20T10:25:59;10.40;99.90
3921;DHT22;1975;49.356;6.816;2023-03-20T10:28:30;10.40;99.90
3921;DHT22;1975;49.356;6.816;2023-03-20T10:31:00;10.50;99.90
3921;DHT22;1975;49.356;6.816;2023-03-20T10:38:38;10.50;99.90
3921;DHT22;1975;49.356;6.816;2023-03-20T10:41:11;10.50;99.90
3921;DHT22;1975;49.356;6.816;2023-03-20T10:43:38;10.50;99.90
3921;DHT22;1975;49.356;6.816;2023-03-20T10:46:08;10.50;99.90
3921;DHT22;1975;49.356;6.816;2023-03-20T10:51:13;10.50;99.90
3921;DHT22;1975;49.356;6.816;2023-03-20T10:56:05;10.50;99.90
3921;DHT22;1975;49.356;6.816;2023-03-20T10:58:33;10.50;99.90
3921;DHT22;1975;49.356;6.816;2023-03-20T11:00:59;10.50;99.90
3921;DHT22;1975;49.356;6.816;2023-03-20T11:03:26;10.50;99.90
3921;DHT22;1975;49.356;6.816;2023-03-20T11:06:02;10.50;99.90
3921;DHT22;1975;49.356;6.816;2023-03-20T11:08:30;10.60;99.90
3921;DHT22;1975;49.356;6.816;2023-03-20T11:10:59;10.60;99.90
3921;DHT22;1975;49.356;6.816;2023-03-20T11:13:35;10.60;99.90
3921;DHT22;1975;49.356;6.816;2023-03-20T11:16:14;10.60;99.90
3921;DHT22;1975;49.356;6.816;2023-03-20T11:18:42;10.60;99.90
3921;DHT22;1975;49.356;6.816;2023-03-20T11:21:09;10.60;99.90
3921;DHT22;1975;49.356;6.816;2023-03-20T11:23:38;10.60;99.90
3921;DHT22;1975;49.356;6.816;2023-03-20T11:26:06;10.60;99.90
3921;DHT22;1975;49.356;6.816;2023-03-20T11:28:38;10.60;99.90
3921;DHT22;1975;49.356;6.816;2023-03-20T11:31:06;10.60;99.90
3921;DHT22;1975;49.356;6.816;2023-03-20T11:33:40;10.60;99.90
3921;DHT22;1975;49.356;6.816;2023-03-20T11:36:11;10.60;99.90
3921;DHT22;1975;49.356;6.816;2023-03-20T11:38:43;10.60;99.90
3921;DHT22;1975;49.356;6.816;2023-03-20T11:41:21;10.60;99.90
3921;DHT22;1975;49.356;6.816;2023-03-20T11:43:47;10.70;99.90
3921;DHT22;1975;49.356;6.816;2023-03-20T11:46:12;10.70;99.90
3921;DHT22;1975;49.356;6.816;2023-03-20T11:48:39;10.70;99.90
3921;DHT22;1975;49.356;6.816;2023-03-20T11:51:05;10.70;99.90
3921;DHT22;1975;49.356;6.816;2023-03-20T11:53:33;10.70;99.90
3921;DHT22;1975;49.356;6.816;2023-03-20T11:56:04;10.70;99.90
3921;DHT22;1975;49.356;6.816;2023-03-20T11:58:31;10.70;99.90
3921;DHT22;1975;49.356;6.816;2023-03-20T12:00:56;10.70;99.90
3921;DHT22;1975;49.356;6.816;2023-03-20T12:06:00;10.70;99.90
3921;DHT22;1975;49.356;6.816;2023-03-20T12:08:25;10.70;99.90
3921;DHT22;1975;49.356;6.816;2023-03-20T12:10:56;10.70;99.90
3921;DHT22;1975;49.356;6.816;2023-03-20T12:13:24;10.70;99.90
3921;DHT22;1975;49.356;6.816;2023-03-20T12:15:51;10.70;99.90
3921;DHT22;1975;49.356;6.816;2023-03-20T12:18:28;10.70;99.90
3921;DHT22;1975;49.356;6.816;2023-03-20T12:26:03;10.70;99.90
3921;DHT22;1975;49.356;6.816;2023-03-20T12:31:04;10.70;99.90
3921;DHT22;1975;49.356;6.816;2023-03-20T12:33:48;10.80;99.90
3921;DHT22;1975;49.356;6.816;2023-03-20T12:36:17;10.80;99.90
3921;DHT22;1975;49.356;6.816;2023-03-20T12:38:45;10.80;99.90
3921;DHT22;1975;49.356;6.816;2023-03-20T12:41:12;10.80;99.90
3921;DHT22;1975;49.356;6.816;2023-03-20T12:43:45;10.80;99.90
3921;DHT22;1975;49.356;6.816;2023-03-20T12:56:59;10.80;99.90
3921;DHT22;1975;49.356;6.816;2023-03-20T12:59:29;10.80;99.90
3921;DHT22;1975;49.356;6.816;2023-03-20T13:02:14;10.80;99.90
3921;DHT22;1975;49.356;6.816;2023-03-20T13:04:54;10.80;99.90
3921;DHT22;1975;49.356;6.816;2023-03-20T13:07:36;10.80;99.90
3921;DHT22;1975;49.356;6.816;2023-03-20T13:10:19;10.80;99.90
3921;DHT22;1975;49.356;6.816;2023-03-20T13:18:22;10.80;99.90
3921;DHT22;1975;49.356;6.816;2023-03-20T13:23:16;10.80;99.90
3921;DHT22;1975;49.356;6.816;2023-03-20T13:38:47;10.90;99.90
3921;DHT22;1975;49.356;6.816;2023-03-20T13:41:14;10.90;99.90
3921;DHT22;1975;49.356;6.816;2023-03-20T13:43:42;10.90;99.90
3921;DHT22;1975;49.356;6.816;2023-03-20T13:48:39;10.90;99.90
3921;DHT22;1975;49.356;6.816;2023-03-20T13:53:43;10.90;99.90
3921;DHT22;1975;49.356;6.816;2023-03-20T13:56:24;10.90;99.90
3921;DHT22;1975;49.356;6.816;2023-03-20T13:58:59;10.90;99.90
3921;DHT22;1975;49.356;6.816;2023-03-20T14:03:53;10.90;99.90
3921;DHT22;1975;49.356;6.816;2023-03-20T14:08:57;10.90;99.90
3921;DHT22;1975;49.356;6.816;2023-03-20T14:13:53;10.90;99.90
3921;DHT22;1975;49.356;6.816;2023-03-20T14:16:19;10.90;99.90
3921;DHT22;1975;49.356;6.816;2023-03-20T14:18:49;10.90;99.90
3921;DHT22;1975;49.356;6.816;2023-03-20T14:21:18;10.90;99.90
3921;DHT22;1975;49.356;6.816;2023-03-20T14:23:48;11.00;99.90
3921;DHT22;1975;49.356;6.816;2023-03-20T14:39:33;11.00;99.90
3921;DHT22;1975;49.356;6.816;2023-03-20T14:47:19;11.00;99.90
3921;DHT22;1975;49.356;6.816;2023-03-20T14:57:42;11.10;99.90
3921;DHT22;1975;49.356;6.816;2023-03-20T15:00:21;11.10;99.90
3921;DHT22;1975;49.356;6.816;2023-03-20T15:02:47;11.10;99.90
3921;DHT22;1975;49.356;6.816;2023-03-20T15:05:24;11.10;99.90
3921;DHT22;1975;49.356;6.816;2023-03-20T15:07:50;11.10;99.90
3921;DHT22;1975;49.356;6.816;2023-03-20T15:10:16;11.10;99.90
3921;DHT22;1975;49.356;6.816;2023-03-20T15:12:42;11.10;99.90
3921;DHT22;1975;49.356;6.816;2023-03-20T15:15:22;11.10;99.90
3921;DHT22;1975;49.356;6.816;2023-03-20T15:17:47;11.00;99.90
3921;DHT22;1975;49.356;6.816;2023-03-20T15:20:20;10.90;99.90
3921;DHT22;1975;49.356;6.816;2023-03-20T15:22:56;10.80;99.90
3921;DHT22;1975;49.356;6.816;2023-03-20T15:25:30;10.80;99.90
3921;DHT22;1975;49.356;6.816;2023-03-20T15:27:56;10.80;99.90
3921;DHT22;1975;49.356;6.816;2023-03-20T15:30:22;10.70;99.90
3921;DHT22;1975;49.356;6.816;2023-03-20T15:32:48;10.70;99.90
3921;DHT22;1975;49.356;6.816;2023-03-20T15:35:15;10.70;99.90
3921;DHT22;1975;49.356;6.816;2023-03-20T15:37:42;10.70;99.90
3921;DHT22;1975;49.356;6.816;2023-03-20T15:40:09;10.70;99.90
3921;DHT22;1975;49.356;6.816;2023-03-20T15:42:36;10.70;99.90
3921;DHT22;1975;49.356;6.816;2023-03-20T15:45:12;10.80;99.90
3921;DHT22;1975;49.356;6.816;2023-03-20T15:47:38;10.80;99.90
3921;DHT22;1975;49.356;6.816;2023-03-20T15:50:10;10.80;99.90
3921;DHT22;1975;49.356;6.816;2023-03-20T15:52:40;10.80;99.90
3921;DHT22;1975;49.356;6.816;2023-03-20T15:55:10;10.80;99.90
3921;DHT22;1975;49.356;6.816;2023-03-20T15:57:37;10.80;99.90
3921;DHT22;1975;49.356;6.816;2023-03-20T16:00:07;10.80;99.90
3921;DHT22;1975;49.356;6.816;2023-03-20T16:02:48;10.80;99.90
3921;DHT22;1975;49.356;6.816;2023-03-20T16:05:15;10.70;99.90
3921;DHT22;1975;49.356;6.816;2023-03-20T16:07:40;10.70;99.90
3921;DHT22;1975;49.356;6.816;2023-03-20T16:10:19;10.80;99.90
3921;DHT22;1975;49.356;6.816;2023-03-20T16:12:48;10.80;99.90
3921;DHT22;1975;49.356;6.816;2023-03-20T16:15:15;10.80;99.90
3921;DHT22;1975;49.356;6.816;2023-03-20T16:17:41;10.80;99.90
3921;DHT22;1975;49.356;6.816;2023-03-20T16:20:16;10.70;99.90
3921;DHT22;1975;49.356;6.816;2023-03-20T16:22:42;10.70;99.90
3921;DHT22;1975;49.356;6.816;2023-03-20T16:25:09;10.70;99.90
3921;DHT22;1975;49.356;6.816;2023-03-20T16:27:36;10.70;99.90
3921;DHT22;1975;49.356;6.816;2023-03-20T16:30:05;10.70;99.90
3921;DHT22;1975;49.356;6.816;2023-03-20T16:32:40;10.70;99.90
3921;DHT22;1975;49.356;6.816;2023-03-20T16:35:51;10.70;99.90
3921;DHT22;1975;49.356;6.816;2023-03-20T16:37:53;10.70;99.90
3921;DHT22;1975;49.356;6.816;2023-03-20T16:40:20;10.70;99.90
3921;DHT22;1975;49.356;6.816;2023-03-20T16:42:46;10.70;99.90
3921;DHT22;1975;49.356;6.816;2023-03-20T16:45:16;10.70;99.90
3921;DHT22;1975;49.356;6.816;2023-03-20T16:47:44;10.70;99.90
3921;DHT22;1975;49.356;6.816;2023-03-20T16:50:15;10.70;99.90
3921;DHT22;1975;49.356;6.816;2023-03-20T16:52:47;10.70;99.90
3921;DHT22;1975;49.356;6.816;2023-03-20T16:55:14;10.70;99.90
3921;DHT22;1975;49.356;6.816;2023-03-20T16:57:40;10.70;99.90
3921;DHT22;1975;49.356;6.816;2023-03-20T17:00:17;10.70;99.90
3921;DHT22;1975;49.356;6.816;2023-03-20T17:02:45;10.70;99.90
3921;DHT22;1975;49.356;6.816;2023-03-20T17:05:13;10.60;99.90
3921;DHT22;1975;49.356;6.816;2023-03-20T17:07:40;10.60;99.90
3921;DHT22;1975;49.356;6.816;2023-03-20T17:12:40;10.70;99.90
3921;DHT22;1975;49.356;6.816;2023-03-20T17:15:08;10.70;99.90
3921;DHT22;1975;49.356;6.816;2023-03-20T17:17:34;10.70;99.90
3921;DHT22;1975;49.356;6.816;2023-03-20T17:20:00;10.70;99.90
3921;DHT22;1975;49.356;6.816;2023-03-20T17:22:26;10.70;99.90
3921;DHT22;1975;49.356;6.816;2023-03-20T17:24:55;10.70;99.90
3921;DHT22;1975;49.356;6.816;2023-03-20T17:27:21;10.70;99.90
3921;DHT22;1975;49.356;6.816;2023-03-20T17:29:47;10.70;99.90
3921;DHT22;1975;49.356;6.816;2023-03-20T17:32:19;10.70;99.90
3921;DHT22;1975;49.356;6.816;2023-03-20T17:34:45;10.70;99.90
3921;DHT22;1975;49.356;6.816;2023-03-20T17:37:14;10.70;99.90
3921;DHT22;1975;49.356;6.816;2023-03-20T17:39:40;10.70;99.90
3921;DHT22;1975;49.356;6.816;2023-03-20T17:42:19;10.60;99.90
3921;DHT22;1975;49.356;6.816;2023-03-20T17:44:45;10.70;99.90
3921;DHT22;1975;49.356;6.816;2023-03-20T17:47:14;10.70;99.90
3921;DHT22;1975;49.356;6.816;2023-03-20T17:49:40;10.70;99.90
3921;DHT22;1975;49.356;6.816;2023-03-20T17:52:08;10.70;99.90
3921;DHT22;1975;49.356;6.816;2023-03-20T17:54:36;10.70;99.90
3921;DHT22;1975;49.356;6.816;2023-03-20T17:57:02;10.70;99.90
3921;DHT22;1975;49.356;6.816;2023-03-20T17:59:27;10.70;99.90
3921;DHT22;1975;49.356;6.816;2023-03-20T18:01:55;10.70;99.90
3921;DHT22;1975;49.356;6.816;2023-03-20T18:04:21;10.60;99.90
3921;DHT22;1975;49.356;6.816;2023-03-20T18:06:46;10.60;99.90
3921;DHT22;1975;49.356;6.816;2023-03-20T18:09:12;10.50;99.90
3921;DHT22;1975;49.356;6.816;2023-03-20T18:11:38;10.50;99.90
3921;DHT22;1975;49.356;6.816;2023-03-20T18:14:04;10.50;99.90
3921;DHT22;1975;49.356;6.816;2023-03-20T18:16:30;10.50;99.90